Enter the Airport ICAO Code

Search by Airport or City

Current Weather

LEGR | Federico García Lorca Airport (Granada Jaén Airport)

Granada, Andalusia, Spain

Last Update 14 Minutes Ago

Sky with Few Clouds

Temperature of 32 ºC

Light Winds from Variable Directions

Temperature

32 ºC

Dew Point Temperature

13 ºC

Relative Humidity

31.69 %

Wind Direction

Variable

Wind Velocity

2 km/h (01 kt)

Gusts

None

Visibility

Greater than 10 Kilometers

Sea Level Pressure

1019 hPa (Hectopascals)

Layers of Clouds

5% to 30% of Sky Covered from 2438 mts (8000 ft) Above Ground Level.

METAR LEGR 131100Z VRB01KT 9999 FEW080 32/13 Q1019

Weather Forecast

LEGR | Federico García Lorca Airport (Granada Jaén Airport)

Granada, Andalusia, Spain

Forecast valid for the next 22 Hours

From now on it is expected:

Clear Sky

Light Winds from Variable Directions

In 4 hours it is expected the begining of 4 hours with intermittent periods of:

Moderate Winds from West

In 5 hours it is expected the begining of 7 hours with intermittent periods of:

Moderate Winds from South

Maximum Temperature

37 ºC in 4 Hours

Minimum Temperature

21 ºC in 18 Hours

TAF LEGR 130800Z 1309/1409 VRB02KT CAVOK TX37/1315Z TN21/1405Z TEMPO 1315/1319 26010KT PROB40 TEMPO 1316/1323 17010KT